createdAt,value
2023-03-24T00:00:44.519Z,4.37
2023-03-24T00:05:51.621Z,3.50
2023-03-24T00:10:59.035Z,3.43
2023-03-24T00:16:06.361Z,3.21
2023-03-24T00:21:13.669Z,3.38
2023-03-24T00:26:20.877Z,3.48
2023-03-24T00:31:28.328Z,4.27
2023-03-24T00:36:35.412Z,4.17
2023-03-24T00:41:42.636Z,4.12
2023-03-24T00:46:51.088Z,5.01
2023-03-24T00:51:58.449Z,6.09
2023-03-24T00:57:05.702Z,6.03
2023-03-24T01:02:13.145Z,6.28
2023-03-24T01:07:20.244Z,5.02
2023-03-24T01:12:27.471Z,4.46
2023-03-24T01:17:34.578Z,5.26
2023-03-24T01:22:41.836Z,5.05
2023-03-24T01:27:49.055Z,5.56
2023-03-24T01:32:56.370Z,5.98
2023-03-24T01:38:03.439Z,6.58
2023-03-24T01:43:10.704Z,7.13
2023-03-24T01:48:17.839Z,6.85
2023-03-24T01:53:25.187Z,7.96
2023-03-24T01:58:32.431Z,8.16
2023-03-24T02:03:39.782Z,9.06
2023-03-24T02:13:56.466Z,8.76
2023-03-24T02:19:03.672Z,7.14
2023-03-24T02:24:10.975Z,8.11
2023-03-24T02:29:18.203Z,7.76
2023-03-24T02:34:25.410Z,7.63
2023-03-24T02:39:32.508Z,6.68
2023-03-24T02:44:39.871Z,6.54
2023-03-24T02:49:47.117Z,6.31
2023-03-24T02:54:54.386Z,6.32
2023-03-24T03:00:01.574Z,6.77
2023-03-24T03:05:08.811Z,7.27
2023-03-24T03:10:16.998Z,6.54
2023-03-24T03:15:24.250Z,6.81
2023-03-24T03:20:31.482Z,9.70
2023-03-24T03:25:38.862Z,6.95
2023-03-24T03:30:46.527Z,7.72
2023-03-24T03:35:53.284Z,6.86
2023-03-24T03:41:00.484Z,7.12
2023-03-24T03:46:07.825Z,5.66
2023-03-24T03:51:14.875Z,6.88
2023-03-24T03:56:23.315Z,6.04
2023-03-24T04:01:30.460Z,6.07
2023-03-24T04:06:37.746Z,6.82
2023-03-24T04:11:45.034Z,7.34
2023-03-24T04:16:52.460Z,6.90
2023-03-24T04:21:59.842Z,7.19
2023-03-24T04:27:07.286Z,6.38
2023-03-24T04:32:14.508Z,6.41
2023-03-24T04:37:21.811Z,5.74
2023-03-24T04:42:28.986Z,6.25
2023-03-24T04:47:36.498Z,7.89
2023-03-24T04:52:43.741Z,7.93
2023-03-24T04:57:51.102Z,7.59
2023-03-24T05:02:58.285Z,7.82
2023-03-24T05:08:05.631Z,6.01
2023-03-24T05:13:12.859Z,6.18
2023-03-24T05:18:20.197Z,5.06
2023-03-24T05:23:27.310Z,5.32
2023-03-24T05:28:34.641Z,7.23
2023-03-24T05:33:41.877Z,6.73
2023-03-24T05:38:49.300Z,5.76
2023-03-24T05:43:56.433Z,6.65
2023-03-24T05:49:03.804Z,5.35
2023-03-24T05:54:11.030Z,6.83
2023-03-24T05:59:22.403Z,6.87
2023-03-24T06:04:19.541Z,6.89
2023-03-24T06:09:30.435Z,7.22
2023-03-24T06:14:27.601Z,5.86
2023-03-24T06:19:34.943Z,7.29
2023-03-24T06:24:42.062Z,6.79
2023-03-24T06:29:49.460Z,6.96
2023-03-24T06:34:56.619Z,4.84
2023-03-24T06:40:04.061Z,36.80
2023-03-24T06:45:12.482Z,23.25
2023-03-24T06:50:19.763Z,5.24
2023-03-24T06:55:27.009Z,5.20
2023-03-24T07:00:34.379Z,5.72
2023-03-24T07:05:41.612Z,6.66
2023-03-24T07:10:48.946Z,4.80
2023-03-24T07:15:56.149Z,4.56
2023-03-24T07:21:03.410Z,4.56
2023-03-24T07:26:10.506Z,6.47
2023-03-24T07:31:17.893Z,5.17
2023-03-24T07:36:25.252Z,5.07
2023-03-24T07:41:32.633Z,6.67
2023-03-24T07:46:39.868Z,7.45
2023-03-24T07:51:47.271Z,5.55
2023-03-24T07:56:54.577Z,5.60
2023-03-24T08:02:01.927Z,6.39
2023-03-24T08:07:09.065Z,5.00
2023-03-24T08:12:20.457Z,5.60
2023-03-24T08:17:24.431Z,5.58
2023-03-24T08:22:31.697Z,4.86
2023-03-24T08:27:38.963Z,7.22
2023-03-24T08:32:46.534Z,5.46
2023-03-24T08:37:53.754Z,6.72
2023-03-24T08:43:01.241Z,5.31
2023-03-24T08:48:02.002Z,5.51
2023-03-24T08:53:09.397Z,9.02
2023-03-24T08:58:16.567Z,6.21
2023-03-24T09:03:24.031Z,5.05
2023-03-24T09:08:31.292Z,5.46
2023-03-24T09:13:38.608Z,5.31
2023-03-24T09:18:45.810Z,4.96
2023-03-24T09:23:53.101Z,5.39
2023-03-24T09:29:00.346Z,6.41
2023-03-24T09:34:07.726Z,6.34
2023-03-24T09:39:14.875Z,8.28
2023-03-24T09:44:22.373Z,7.28
2023-03-24T09:49:29.569Z,5.58
2023-03-24T09:54:37.130Z,5.25
2023-03-24T09:59:44.306Z,4.32
2023-03-24T10:04:53.773Z,4.29
2023-03-24T10:10:00.002Z,3.88
2023-03-24T10:15:07.579Z,3.98
2023-03-24T10:20:14.826Z,3.20
2023-03-24T10:25:22.581Z,3.50
2023-03-24T10:30:29.751Z,3.37
2023-03-24T10:35:37.168Z,3.58
2023-03-24T10:40:44.523Z,3.19
2023-03-24T10:45:52.072Z,3.76
2023-03-24T10:50:52.312Z,3.33
2023-03-24T10:55:59.731Z,3.17
2023-03-24T11:01:07.109Z,3.09
2023-03-24T11:06:14.542Z,3.00
2023-03-24T11:11:21.823Z,3.02
2023-03-24T11:16:29.177Z,2.80
2023-03-24T11:21:36.436Z,3.43
2023-03-24T11:26:43.868Z,3.68
2023-03-24T11:31:50.977Z,4.10
2023-03-24T11:36:58.472Z,3.68
2023-03-24T11:42:05.654Z,4.05
2023-03-24T11:47:13.099Z,4.06
2023-03-24T11:52:20.370Z,3.37
2023-03-24T11:57:27.765Z,3.16
2023-03-24T12:02:35.098Z,2.84
2023-03-24T12:07:42.316Z,3.02
2023-03-24T12:12:49.575Z,3.20
2023-03-24T12:17:57.081Z,2.85
2023-03-24T12:23:04.294Z,3.30
2023-03-24T12:28:11.648Z,3.06
2023-03-24T12:33:18.835Z,3.17
2023-03-24T12:38:26.828Z,3.36
2023-03-24T12:43:34.059Z,3.96
2023-03-24T12:48:41.461Z,3.65
2023-03-24T12:53:48.769Z,3.49
2023-03-24T12:58:56.175Z,3.59
2023-03-24T13:04:03.464Z,3.60
2023-03-24T13:09:10.843Z,3.53
2023-03-24T13:14:18.099Z,3.31
2023-03-24T13:19:25.394Z,3.85
2023-03-24T13:24:32.634Z,3.53
2023-03-24T13:29:48.618Z,3.71
2023-03-24T13:34:46.879Z,3.61
2023-03-24T13:39:54.235Z,3.60
2023-03-24T13:45:01.438Z,3.23
2023-03-24T13:50:08.723Z,2.92
2023-03-24T13:55:15.891Z,3.31
2023-03-24T14:00:23.421Z,3.27
2023-03-24T14:05:30.605Z,3.47
2023-03-24T14:10:40.575Z,3.46
2023-03-24T14:15:47.088Z,3.31
2023-03-24T14:20:54.334Z,3.36
2023-03-24T14:26:01.494Z,2.98
2023-03-24T14:31:09.351Z,2.98
2023-03-24T14:36:16.604Z,3.01
2023-03-24T14:41:24.403Z,3.13
2023-03-24T14:46:32.733Z,2.92
2023-03-24T14:51:40.380Z,2.93
2023-03-24T14:56:49.011Z,3.07
2023-03-24T15:01:56.456Z,2.79
2023-03-24T15:07:03.645Z,2.95
2023-03-24T15:12:04.222Z,3.12
2023-03-24T15:17:16.845Z,2.96
2023-03-24T15:22:14.120Z,2.91
2023-03-24T15:27:21.289Z,2.82
2023-03-24T15:32:28.748Z,3.01
2023-03-24T15:37:36.692Z,2.92
2023-03-24T15:42:42.724Z,3.17
2023-03-24T15:47:49.956Z,3.04
2023-03-24T15:52:57.337Z,3.24
2023-03-24T15:58:04.626Z,3.04
2023-03-24T16:03:12.372Z,3.32
2023-03-24T16:08:19.706Z,2.95
2023-03-24T16:13:27.058Z,3.06
2023-03-24T16:18:35.515Z,3.00
2023-03-24T16:23:42.903Z,2.89
2023-03-24T16:28:50.158Z,3.09
2023-03-24T16:33:58.148Z,3.00
2023-03-24T16:39:04.250Z,3.26
2023-03-24T16:44:11.589Z,3.06
2023-03-24T16:49:18.937Z,3.22
2023-03-24T16:54:26.108Z,3.31
2023-03-24T16:59:33.369Z,3.16
2023-03-24T17:04:40.777Z,3.10
2023-03-24T17:09:47.911Z,3.06
2023-03-24T17:14:58.163Z,3.08
2023-03-24T17:19:55.331Z,3.08
2023-03-24T17:25:02.658Z,3.20
2023-03-24T17:30:09.794Z,2.70
2023-03-24T17:35:17.228Z,3.71
2023-03-24T17:40:24.550Z,3.65
2023-03-24T17:45:32.110Z,4.58
2023-03-24T17:50:39.418Z,6.29
2023-03-24T17:55:46.789Z,8.78
2023-03-24T18:00:55.175Z,13.85
2023-03-24T18:06:02.439Z,10.72
2023-03-24T18:11:09.695Z,7.48
2023-03-24T18:16:21.420Z,9.87
2023-03-24T18:21:23.780Z,12.75
2023-03-24T18:26:31.019Z,10.62
2023-03-24T18:31:38.447Z,7.27
2023-03-24T18:36:45.852Z,6.65
2023-03-24T18:41:53.717Z,6.71
2023-03-24T18:46:59.964Z,7.58
2023-03-24T18:52:08.411Z,6.76
2023-03-24T18:57:14.138Z,6.59
2023-03-24T19:02:21.424Z,8.23
2023-03-24T19:07:28.701Z,9.99
2023-03-24T19:12:35.962Z,11.00
2023-03-24T19:17:43.421Z,8.57
2023-03-24T19:22:50.511Z,6.07
2023-03-24T19:27:57.856Z,7.14
2023-03-24T19:33:05.186Z,6.62
2023-03-24T19:38:12.612Z,6.64
2023-03-24T19:43:19.835Z,6.01
2023-03-24T19:48:27.096Z,5.65
2023-03-24T19:53:34.250Z,5.96
2023-03-24T19:58:41.582Z,5.99
2023-03-24T20:03:48.922Z,6.15
2023-03-24T20:08:56.142Z,7.58
2023-03-24T20:14:03.778Z,8.81
2023-03-24T20:19:11.278Z,8.97
2023-03-24T20:24:18.637Z,8.58
2023-03-24T20:29:28.188Z,9.16
2023-03-24T20:34:35.522Z,7.92
2023-03-24T20:39:42.995Z,6.80
2023-03-24T20:44:50.208Z,4.92
2023-03-24T20:49:57.542Z,3.18
2023-03-24T20:55:04.989Z,2.86
2023-03-24T21:00:12.353Z,2.99
2023-03-24T21:05:19.528Z,2.86
2023-03-24T21:10:29.892Z,2.68
2023-03-24T21:15:27.171Z,2.95
2023-03-24T21:20:35.557Z,3.01
2023-03-24T21:25:45.808Z,3.14
2023-03-24T21:30:47.052Z,2.77
2023-03-24T21:35:44.317Z,2.85
2023-03-24T21:40:51.622Z,2.79
2023-03-24T21:45:58.876Z,2.91
2023-03-24T21:51:08.221Z,2.40
2023-03-24T21:56:15.508Z,2.69
2023-03-24T22:01:23.094Z,2.95
2023-03-24T22:06:30.162Z,3.02
2023-03-24T22:11:37.541Z,3.06
2023-03-24T22:16:44.885Z,3.36
2023-03-24T22:21:52.212Z,3.45
2023-03-24T22:26:59.492Z,3.37
2023-03-24T22:32:08.419Z,4.13
2023-03-24T22:37:15.667Z,3.58
2023-03-24T22:42:23.096Z,3.39
2023-03-24T22:47:30.526Z,2.83
2023-03-24T22:52:37.905Z,3.31
2023-03-24T22:57:45.101Z,3.49
2023-03-24T23:02:52.537Z,3.01
2023-03-24T23:07:59.830Z,5.08
2023-03-24T23:13:07.261Z,6.22
2023-03-24T23:18:14.538Z,3.29
2023-03-24T23:23:21.925Z,3.35
2023-03-24T23:28:29.094Z,3.15
2023-03-24T23:33:36.588Z,3.61
2023-03-24T23:38:43.748Z,3.29
2023-03-24T23:43:51.232Z,3.31
2023-03-24T23:48:58.500Z,2.88
2023-03-24T23:54:05.884Z,3.06
2023-03-24T23:59:13.128Z,3.05
